EDDK 200020Z AUTO VRB01KT 9999 BKN015 BKN025 16/15 Q1022 TEMPO BKN010 EDDK 192350Z AUTO VRB02KT 9999 FEW014 BKN026 16/15 Q1022 NOSIG EDDK 192320Z AUTO VRB01KT 9999 BKN023 17/16 Q1022 TEMPO BKN010 EDDK 192250Z AUTO VRB04KT 9999 FEW008 16/15 Q1022 EDDK 192220Z AUTO VRB02KT 9999 FEW028 16/16 Q1021 TEMPO 34005KT EDDK 192150Z AUTO 06003KT CAVOK 16/16 Q1021 TEMPO 34005KT EDDK 192120Z AUTO VRB01KT CAVOK 17/16 Q1021 TEMPO 34005KT EDDK 192050Z AUTO 14005KT CAVOK 17/16 Q1021 NOSIG EDDK 192020Z AUTO 14005KT CAVOK 17/16 Q1021 NOSIG EDDK 191950Z AUTO 14004KT CAVOK 17/16 Q1021 NOSIG EDDK 191920Z AUTO 13004KT CAVOK 18/16 Q1021 NOSIG EDDK 191850Z AUTO 13003KT 100V160 CAVOK 18/17 Q1021 NOSIG EDDK 191820Z AUTO 15003KT CAVOK 19/17 Q1020 NOSIG EDDK 191750Z AUTO 17004KT 140V200 CAVOK 19/17 Q1021 NOSIG EDDK 191720Z AUTO 28005KT 250V310 9999 FEW010 19/16 Q1021 NOSIG EDDK 191650Z AUTO 28009KT 250V310 9999 FEW011 19/16 Q1020 NOSIG EDDK 191620Z AUTO 23005KT 200V260 9999 FEW011 18/17 Q1020 NOSIG EDDK 191550Z AUTO VRB02KT 9999 FEW036 18/16 Q1019 RETS NOSIG EDDK 191520Z AUTO 27007KT 9999 -TSRA FEW///CB 18/16 Q1019 RESHRA TEMPO 27015G35KT TSRA BKN025CB EDDK 191450Z AUTO 27009KT 9999 SHRA VCTS FEW///CB 18/16 Q1019 RETS BECMG NSW EDDK 191420Z AUTO 31013KT 270V350 9999 +TSGRRA SCT///CB 19/16 Q1019 TEMPO 28020G45KT 2000 EDDK 191350Z AUTO 28030G43KT 240V320 9999 SHRA VCTS FEW///CB 23/15 Q1018 TEMPO 27020G45KT TSGRRA EDDK 191320Z AUTO 16012KT 130V190 CAVOK 30/15 Q1016 BECMG 26025G45KT 2000 +TSGRRA BKN025CB EDDK 191250Z AUTO 15011KT 110V180 CAVOK 29/15 Q1016 BECMG 26020G40KT 2000 +TSGRRA BKN025CB EDDK 191220Z AUTO 16014KT CAVOK 28/15 Q1017 RESHRA BECMG 26020G40KT TSRA BKN025CB EDDK 191150Z AUTO 14012KT 110V170 9999 SHRA FEW///CB 27/15 Q1017 TEMPO NSW EDDK 191120Z AUTO 14012KT 100V180 CAVOK 26/14 Q1017 TEMPO 20015G25KT SHRA SCT045CB EDDK 191050Z AUTO 15011KT CAVOK 26/14 Q1017 BECMG 21008KT EDDK 191020Z AUTO 12009KT 080V160 CAVOK 26/13 Q1018 BECMG 21008KT EDDK 190950Z AUTO 14008KT 090V170 CAVOK 26/14 Q1018 NOSIG EDDK 190920Z AUTO 13008KT CAVOK 25/13 Q1018 NOSIG EDDK 190850Z AUTO 14008KT 100V170 CAVOK 25/14 Q1018 NOSIG EDDK 190820Z AUTO 16010KT CAVOK 25/14 Q1018 NOSIG EDDK 190750Z AUTO 14009KT CAVOK 24/13 Q1019 NOSIG EDDK 190720Z AUTO 15007KT 110V170 CAVOK 23/13 Q1019 NOSIG EDDK 190650Z AUTO 16005KT 100V190 CAVOK 22/13 Q1019 NOSIG EDDK 190620Z AUTO 18005KT 110V260 CAVOK 21/12 Q1019 NOSIG EDDK 190550Z AUTO 12007KT 090V160 CAVOK 21/12 Q1018 NOSIG EDDK 190520Z AUTO 12007KT 080V160 CAVOK 20/12 Q1018 NOSIG EDDK 190450Z AUTO 13007KT 100V160 CAVOK 20/12 Q1018 NOSIG EDDK 190420Z AUTO 12007KT 090V150 CAVOK 20/12 Q1018 NOSIG EDDK 190350Z AUTO 11006KT 080V140 CAVOK 19/12 Q1018 NOSIG EDDK 190320Z AUTO 12006KT 090V150 CAVOK 20/12 Q1018 NOSIG EDDK 190250Z AUTO 13007KT CAVOK 20/12 Q1018 NOSIG EDDK 190220Z AUTO 12008KT 090V150 CAVOK 20/12 Q1018 NOSIG EDDK 190150Z AUTO 12008KT 080V140 CAVOK 20/12 Q1018 NOSIG EDDK 190120Z AUTO 11007KT 080V140 CAVOK 21/12 Q1019 NOSIG EDDK 190050Z AUTO 12006KT CAVOK 21/12 Q1019 NOSIG EDDK 190020Z AUTO 11006KT CAVOK 21/13 Q1019 NOSIG EDDK 182350Z AUTO 11006KT CAVOK 21/13 Q1019 NOSIG EDDK 182320Z AUTO 12004KT 090V150 CAVOK 21/13 Q1019 NOSIG EDDK 182250Z AUTO 12004KT 080V160 CAVOK 21/13 Q1019 NOSIG EDDK 182220Z AUTO 11004KT 080V140 CAVOK 22/13 Q1019 NOSIG EDDK 182150Z AUTO 11005KT 070V140 CAVOK 22/12 Q1019 NOSIG EDDK 182120Z AUTO 11004KT 070V140 CAVOK 22/12 Q1019 NOSIG EDDK 182050Z AUTO 10004KT 070V140 CAVOK 23/12 Q1019 NOSIG EDDK 182020Z AUTO 10005KT 060V150 CAVOK 23/12 Q1019 NOSIG EDDK 181950Z AUTO 09006KT 060V120 CAVOK 24/12 Q1019 NOSIG EDDK 181920Z AUTO 09005KT CAVOK 24/12 Q1019 NOSIG EDDK 181850Z AUTO 09005KT CAVOK 25/13 Q1019 NOSIG EDDK 181820Z AUTO 11005KT 070V150 CAVOK 26/12 Q1019 NOSIG EDDK 181750Z AUTO 12006KT 090V150 CAVOK 27/12 Q1019 NOSIG EDDK 181720Z AUTO 14008KT CAVOK 28/12 Q1019 NOSIG EDDK 181650Z AUTO 14009KT CAVOK 28/12 Q1019 NOSIG EDDK 181620Z AUTO 13009KT 100V170 CAVOK 29/12 Q1019 NOSIG EDDK 181550Z AUTO 12008KT 070V150 CAVOK 29/12 Q1019 NOSIG EDDK 181520Z AUTO 12008KT 070V150 CAVOK 29/12 Q1020 NOSIG EDDK 181450Z AUTO 15011KT 090V170 CAVOK 29/11 Q1020 NOSIG EDDK 181420Z AUTO 15008KT 120V210 CAVOK 30/12 Q1020 NOSIG EDDK 181350Z AUTO 12009KT 080V170 CAVOK 29/11 Q1020 NOSIG EDDK 181320Z AUTO 13009KT 080V170 CAVOK 29/12 Q1020 NOSIG EDDK 181250Z AUTO 14009KT 090V180 CAVOK 29/12 Q1020 NOSIG

METAR Messwerte "KOELN/BONN" EDDK

Zurück zur Übersicht

Ortsname
Ländercode / m ü. NN
Zeit Temperatur Taupunkt Rel.
Luftfeuchte
Luftdruck:
Altimeter
NN
Station
Wind in Beaufort
(Knoten)
Sichtweite
(Meter)
Wolken
(Meter über Grund)
Wettererscheinung
KOELN/BONN
DE 92
Fr 20.05. 02:20161594 %1022
1022
1011
Uml 1 (1)>= 10000Stark bewölkt (760)
Stark bewölkt (460)
 
KOELN/BONN
DE 92
Fr 20.05. 01:50161594 %1022
1022
1011
Uml 1 (2)>= 10000Stark bewölkt (790)
Leicht bewölkt (430)
 
KOELN/BONN
DE 92
Fr 20.05. 01:20171694 %1022
1022
1011
Uml 1 (1)>= 10000Stark bewölkt (700) 
KOELN/BONN
DE 92
Fr 20.05. 00:50161594 %1022
1022
1011
Uml 2 (4)>= 10000Leicht bewölkt (240) 
KOELN/BONN
DE 92
Fr 20.05. 00:201616100 %1021
1021
1010
Uml 1 (2)
Bald zeitweise:
NNW 2 (5)
>= 10000Leicht bewölkt (850) 
KOELN/BONN
DE 92
Do 19.05. 23:501616100 %1021
1021
1010
ONO 2 (3)
Bald zeitweise:
NNW 2 (5)
>= 10000Nicht signifikant 
KOELN/BONN
DE 92
Do 19.05. 23:20171694 %1021
1021
1010
Uml 1 (1)
Bald zeitweise:
NNW 2 (5)
>= 10000Nicht signifikant 
KOELN/BONN
DE 92
Do 19.05. 22:50171694 %1021
1021
1010
SO 2 (5)>= 10000Nicht signifikant 
KOELN/BONN
DE 92
Do 19.05. 22:20171694 %1021
1021
1010
SO 2 (5)>= 10000Nicht signifikant 
KOELN/BONN
DE 92
Do 19.05. 21:50171694 %1021
1021
1010
SO 2 (4)>= 10000Nicht signifikant 
KOELN/BONN
DE 92
Do 19.05. 21:20181688 %1021
1021
1010
SO 2 (4)>= 10000Nicht signifikant 
KOELN/BONN
DE 92
Do 19.05. 20:50181794 %1021
1021
1010
SO 2 (3)
O - SSO
>= 10000Nicht signifikant 
KOELN/BONN
DE 92
Do 19.05. 20:20191788 %1020
1020
1009
SSO 2 (3)>= 10000Nicht signifikant 
KOELN/BONN
DE 92
Do 19.05. 19:50191788 %1021
1021
1010
S 2 (4)
SO - SSW
>= 10000Nicht signifikant 
KOELN/BONN
DE 92
Do 19.05. 19:20191683 %1021
1021
1010
W 2 (5)
WSW - NW
>= 10000Leicht bewölkt (300) 
KOELN/BONN
DE 92
Do 19.05. 18:50191683 %1020
1020
1009
W 3 (9)
WSW - NW
>= 10000Leicht bewölkt (340) 
KOELN/BONN
DE 92
Do 19.05. 18:20181794 %1020
1020
1009
SW 2 (5)
SSW - W
>= 10000Leicht bewölkt (340) 
KOELN/BONN
DE 92
Do 19.05. 17:50181688 %1019
1019
1008
Uml 1 (2)>= 10000Leicht bewölkt (1100) 
KOELN/BONN
DE 92
Do 19.05. 17:20181688 %1019
1019
1008
W 3 (7)
Bald zeitweise:
W 4 (15) - 8 (35)
>= 10000 Gewitter mit Regen (schwach)
Bald zeitweise: Gewitter mit Regen
KOELN/BONN
DE 92
Do 19.05. 16:50181688 %1019
1019
1008
W 3 (9)>= 10000 Regen-Schauer
KOELN/BONN
DE 92
Do 19.05. 16:20191683 %1019
1019
1008
NW 4 (13)
W - N
Bald zeitweise:
W 5 (20) - 9 (45)
>= 10000 Gewitter mit Hagel/Regen (stark)
KOELN/BONN
DE 92
Do 19.05. 15:50231561 %1018
1018
1007
W 7 (30) - 9 (43)
WSW - NW
Bald zeitweise:
W 5 (20) - 9 (45)
>= 10000 Regen-Schauer
Bald zeitweise: Gewitter mit Hagel/Regen
KOELN/BONN
DE 92
Do 19.05. 15:20301540 %1016
1015
1005
SSO 4 (12)
SO - S
Bald Übergang zu:
W 6 (25) - 9 (45)
>= 10000
Bald Übergang zu: 2000
Nicht signifikant Bald Übergang zu: Gewitter mit Hagel/Regen (stark)
KOELN/BONN
DE 92
Do 19.05. 14:50291543 %1016
1015
1005
SSO 4 (11)
OSO - S
Bald Übergang zu:
W 5 (20) - 8 (40)
>= 10000
Bald Übergang zu: 2000
Nicht signifikant Bald Übergang zu: Gewitter mit Hagel/Regen (stark)
KOELN/BONN
DE 92
Do 19.05. 14:20281545 %1017
1017
1006
SSO 4 (14)
Bald Übergang zu:
W 5 (20) - 8 (40)
>= 10000Nicht signifikant Bald Übergang zu: Gewitter mit Regen
KOELN/BONN
DE 92
Do 19.05. 13:50271548 %1017
1017
1006
SO 4 (12)
OSO - S
>= 10000 Regen-Schauer
KOELN/BONN
DE 92
Do 19.05. 13:20261448 %1017
1017
1006
SO 4 (12)
O - S
Bald zeitweise:
SSW 4 (15) - 6 (25)
>= 10000Nicht signifikant Bald zeitweise: Regen-Schauer
KOELN/BONN
DE 92
Do 19.05. 12:50261448 %1017
1017
1006
SSO 4 (11)
Bald Übergang zu:
SSW 3 (8)
>= 10000Nicht signifikant 
KOELN/BONN
DE 92
Do 19.05. 12:20261345 %1018
1018
1007
OSO 3 (9)
O - SSO
Bald Übergang zu:
SSW 3 (8)
>= 10000Nicht signifikant 
KOELN/BONN
DE 92
Do 19.05. 11:50261448 %1018
1018
1007
SO 3 (8)
O - S
>= 10000Nicht signifikant 
KOELN/BONN
DE 92
Do 19.05. 11:20251347 %1018
1018
1007
SO 3 (8)>= 10000Nicht signifikant 
KOELN/BONN
DE 92
Do 19.05. 10:50251450 %1018
1018
1007
SO 3 (8)
O - S
>= 10000Nicht signifikant 
KOELN/BONN
DE 92
Do 19.05. 10:20251450 %1018
1018
1007
SSO 3 (10)>= 10000Nicht signifikant 
KOELN/BONN
DE 92
Do 19.05. 09:50241350 %1019
1019
1008
SO 3 (9)>= 10000Nicht signifikant 
KOELN/BONN
DE 92
Do 19.05. 09:20231353 %1019
1019
1008
SSO 3 (7)
OSO - S
>= 10000Nicht signifikant 
KOELN/BONN
DE 92
Do 19.05. 08:50221357 %1019
1019
1008
SSO 2 (5)
O - S
>= 10000Nicht signifikant 
KOELN/BONN
DE 92
Do 19.05. 08:20211256 %1019
1019
1008
S 2 (5)
OSO - W
>= 10000Nicht signifikant 
KOELN/BONN
DE 92
Do 19.05. 07:50211256 %1018
1018
1007
OSO 3 (7)
O - SSO
>= 10000Nicht signifikant 
KOELN/BONN
DE 92
Do 19.05. 07:20201260 %1018
1018
1007
OSO 3 (7)
O - SSO
>= 10000Nicht signifikant 
KOELN/BONN
DE 92
Do 19.05. 06:50201260 %1018
1018
1007
SO 3 (7)
O - SSO
>= 10000Nicht signifikant 
KOELN/BONN
DE 92
Do 19.05. 06:20201260 %1018
1018
1007
OSO 3 (7)
O - SSO
>= 10000Nicht signifikant 
KOELN/BONN
DE 92
Do 19.05. 05:50191264 %1018
1018
1007
OSO 2 (6)
O - SO
>= 10000Nicht signifikant 
KOELN/BONN
DE 92
Do 19.05. 05:20201260 %1018
1018
1007
OSO 2 (6)
O - SSO
>= 10000Nicht signifikant 
KOELN/BONN
DE 92
Do 19.05. 04:50201260 %1018
1018
1007
SO 3 (7)>= 10000Nicht signifikant 
KOELN/BONN
DE 92
Do 19.05. 04:20201260 %1018
1018
1007
OSO 3 (8)
O - SSO
>= 10000Nicht signifikant 
KOELN/BONN
DE 92
Do 19.05. 03:50201260 %1018
1018
1007
OSO 3 (8)
O - SO
>= 10000Nicht signifikant 
KOELN/BONN
DE 92
Do 19.05. 03:20211256 %1019
1019
1008
OSO 3 (7)
O - SO
>= 10000Nicht signifikant 
KOELN/BONN
DE 92
Do 19.05. 02:50211256 %1019
1019
1008
OSO 2 (6)>= 10000Nicht signifikant 
KOELN/BONN
DE 92
Do 19.05. 02:20211360 %1019
1019
1008
OSO 2 (6)>= 10000Nicht signifikant 
KOELN/BONN
DE 92
Do 19.05. 01:50211360 %1019
1019
1008
OSO 2 (6)>= 10000Nicht signifikant 
KOELN/BONN
DE 92
Do 19.05. 01:20211360 %1019
1019
1008
OSO 2 (4)
O - SSO
>= 10000Nicht signifikant 
KOELN/BONN
DE 92
Do 19.05. 00:50211360 %1019
1019
1008
OSO 2 (4)
O - SSO
>= 10000Nicht signifikant 
KOELN/BONN
DE 92
Do 19.05. 00:20221357 %1019
1019
1008
OSO 2 (4)
O - SO
>= 10000Nicht signifikant 
KOELN/BONN
DE 92
Mi 18.05. 23:50221253 %1019
1019
1008
OSO 2 (5)
ONO - SO
>= 10000Nicht signifikant 
KOELN/BONN
DE 92
Mi 18.05. 23:20221253 %1019
1019
1008
OSO 2 (4)
ONO - SO
>= 10000Nicht signifikant 
KOELN/BONN
DE 92
Mi 18.05. 22:50231250 %1019
1019
1008
O 2 (4)
ONO - SO
>= 10000Nicht signifikant 
KOELN/BONN
DE 92
Mi 18.05. 22:20231250 %1019
1019
1008
O 2 (5)
ONO - SSO
>= 10000Nicht signifikant 
KOELN/BONN
DE 92
Mi 18.05. 21:50241247 %1019
1019
1008
O 2 (6)
ONO - OSO
>= 10000Nicht signifikant 
KOELN/BONN
DE 92
Mi 18.05. 21:20241247 %1019
1019
1008
O 2 (5)>= 10000Nicht signifikant 
KOELN/BONN
DE 92
Mi 18.05. 20:50251347 %1019
1019
1008
O 2 (5)>= 10000Nicht signifikant 
KOELN/BONN
DE 92
Mi 18.05. 20:20261242 %1019
1019
1008
OSO 2 (5)
ONO - SSO
>= 10000Nicht signifikant 
KOELN/BONN
DE 92
Mi 18.05. 19:50271239 %1019
1019
1008
OSO 2 (6)
O - SSO
>= 10000Nicht signifikant 
KOELN/BONN
DE 92
Mi 18.05. 19:20281237 %1019
1019
1008
SO 3 (8)>= 10000Nicht signifikant 
KOELN/BONN
DE 92
Mi 18.05. 18:50281237 %1019
1019
1008
SO 3 (9)>= 10000Nicht signifikant 
KOELN/BONN
DE 92
Mi 18.05. 18:20291235 %1019
1019
1008
SO 3 (9)
O - S
>= 10000Nicht signifikant 
KOELN/BONN
DE 92
Mi 18.05. 17:50291235 %1019
1019
1008
OSO 3 (8)
ONO - SSO
>= 10000Nicht signifikant 
KOELN/BONN
DE 92
Mi 18.05. 17:20291235 %1020
1020
1009
OSO 3 (8)
ONO - SSO
>= 10000Nicht signifikant 
KOELN/BONN
DE 92
Mi 18.05. 16:50291133 %1020
1020
1009
SSO 4 (11)
O - S
>= 10000Nicht signifikant 
KOELN/BONN
DE 92
Mi 18.05. 16:20301233 %1020
1019
1009
SSO 3 (8)
OSO - SSW
>= 10000Nicht signifikant 
KOELN/BONN
DE 92
Mi 18.05. 15:50291133 %1020
1020
1009
OSO 3 (9)
O - S
>= 10000Nicht signifikant 
KOELN/BONN
DE 92
Mi 18.05. 15:20291235 %1020
1020
1009
SO 3 (9)
O - S
>= 10000Nicht signifikant 
KOELN/BONN
DE 92
Mi 18.05. 14:50291235 %1020
1020
1009
SO 3 (9)
O - S
>= 10000Nicht signifikant 

Altimeter: Einstellung am Altimeter (Höhenmesser), die Höhe 0 muss auf diesen Luftdruckwert zeigen, damit das Gerät die Stationshöhe richtig anzeigt.

NN: Luftdruck reduziert auf "Normal Null", auf Meereshöhe, dieser von der Temperatur abhängige Wert wird bisweilen unkorrekt einfach als "Luftdruck" bezeichnet. Eigentlich nur eine fiktive Größe, die es erlaubt, Stationen auf unterschiedlichen Höhen miteinander zu vergleichen.

Station: Realer Luftdruck an der Station.